Time;durP1;ratioP1;P1;durP2;ratioP2;P2;SDS_P1;SDS_P2;PMS_P1;PMS_P2;Temp;Humidity;BMP_temperature;BMP_pressure;BME280_temperature;BME280_humidity;BME280_pressure;Samples;Min_cycle;Max_cycle;Signal;HPM_P1;HPM_P2
2022/12/24 00:01:38;;;;;;;28.63;4.80;;;;;;;;;;4982656;28;21361;-70
2022/12/24 00:04:04;;;;;;;28.38;4.35;;;;;;;;;;4975123;28;20225;-70
2022/12/24 00:06:29;;;;;;;29.08;4.78;;;;;;;;;;4984290;28;20237;-71
2022/12/24 00:08:54;;;;;;;21.80;4.15;;;;;;;;;;4982979;28;20217;-71
2022/12/24 00:11:19;;;;;;;30.13;4.18;;;;;;;;;;4984556;28;20672;-70
2022/12/24 00:13:45;;;;;;;28.42;4.63;;;;;;;;;;4985660;28;20223;-71
2022/12/24 00:16:10;;;;;;;29.88;5.40;;;;;;;;;;4986750;28;20213;-70
2022/12/24 00:18:35;;;;;;;29.67;4.70;;;;;;;;;;4986162;28;20251;-71
2022/12/24 00:21:02;;;;;;;29.20;4.65;;;;;;;;;;4979505;28;20680;-69
2022/12/24 00:23:28;;;;;;;23.88;4.35;;;;;;;;;;4978093;28;20715;-70
2022/12/24 00:25:53;;;;;;;31.13;4.63;;;;;;;;;;4977550;28;20225;-70
2022/12/24 00:28:18;;;;;;;30.00;4.43;;;;;;;;;;4985197;28;20225;-68
2022/12/24 00:30:43;;;;;;;30.00;4.25;;;;;;;;;;4986253;28;20684;-70
2022/12/24 00:33:09;;;;;;;26.45;4.50;;;;;;;;;;4985081;28;20283;-69
2022/12/24 00:35:34;;;;;;;32.50;4.90;;;;;;;;;;4986242;28;20217;-70
2022/12/24 00:38:00;;;;;;;29.38;4.47;;;;;;;;;;5001536;28;20216;-70
2022/12/24 00:40:25;;;;;;;27.23;4.63;;;;;;;;;;4985238;28;20707;-70
2022/12/24 00:42:50;;;;;;;26.77;4.93;;;;;;;;;;4981965;28;20209;-70
2022/12/24 00:45:16;;;;;;;29.27;5.03;;;;;;;;;;4977339;28;20672;-70
2022/12/24 00:47:41;;;;;;;30.05;4.65;;;;;;;;;;4977927;28;20220;-70
2022/12/24 00:50:06;;;;;;;33.00;4.63;;;;;;;;;;4981981;28;20224;-69
2022/12/24 00:52:32;;;;;;;29.17;4.63;;;;;;;;;;4985286;28;20213;-70
2022/12/24 00:54:57;;;;;;;32.42;4.72;;;;;;;;;;4986275;28;20213;-70
2022/12/24 00:57:22;;;;;;;28.83;4.10;;;;;;;;;;4985156;28;20267;-70
2022/12/24 00:59:47;;;;;;;28.92;5.32;;;;;;;;;;4985514;28;20622;-70
2022/12/24 01:02:13;;;;;;;31.35;4.82;;;;;;;;;;4985251;28;20228;-70
2022/12/24 01:07:22;;;;;;;32.22;4.75;;;;;;;;;;4976856;28;20236;-70
2022/12/24 01:09:47;;;;;;;32.47;4.50;;;;;;;;;;4977330;28;20213;-70
2022/12/24 01:12:12;;;;;;;30.23;5.53;;;;;;;;;;4994272;28;20212;-70
2022/12/24 01:14:38;;;;;;;31.65;5.22;;;;;;;;;;4985688;28;20744;-70
2022/12/24 01:17:03;;;;;;;25.00;5.05;;;;;;;;;;4984917;28;20266;-69
2022/12/24 01:19:28;;;;;;;38.13;4.88;;;;;;;;;;4985658;28;20228;-70
2022/12/24 01:21:53;;;;;;;29.57;4.77;;;;;;;;;;4983495;28;20260;-70
2022/12/24 01:24:19;;;;;;;31.33;4.55;;;;;;;;;;4985171;28;20756;-70
2022/12/24 01:26:44;;;;;;;32.53;4.97;;;;;;;;;;4984963;28;20213;-70
2022/12/24 01:29:09;;;;;;;37.75;5.28;;;;;;;;;;4977253;28;20505;-67
2022/12/24 01:31:34;;;;;;;33.70;5.47;;;;;;;;;;4991501;28;20209;-70
2022/12/24 01:34:00;;;;;;;36.53;4.82;;;;;;;;;;4977283;28;20782;-70
2022/12/24 01:36:25;;;;;;;36.58;5.75;;;;;;;;;;4983652;28;20213;-70
2022/12/24 01:38:50;;;;;;;35.05;4.95;;;;;;;;;;4984925;28;20255;-71
2022/12/24 01:44:16;;;;;;;29.92;4.47;;;;;;;;;;4984516;28;20645;-65
2022/12/24 01:46:42;;;;;;;30.98;5.22;;;;;;;;;;4984755;28;20692;-70
2022/12/24 01:49:07;;;;;;;34.17;4.55;;;;;;;;;;4998961;28;20323;-70
2022/12/24 01:51:34;;;;;;;33.72;4.85;;;;;;;;;;4993146;28;20217;-70
2022/12/24 01:54:02;;;;;;;23.40;4.47;;;;;;;;;;4977114;28;20323;-70
2022/12/24 01:56:27;;;;;;;28.33;5.05;;;;;;;;;;4996011;28;20251;-70
2022/12/24 01:58:54;;;;;;;30.40;4.75;;;;;;;;;;4998469;28;20245;-70
2022/12/24 02:01:19;;;;;;;33.15;5.90;;;;;;;;;;5018421;28;21330;-69
2022/12/24 02:03:45;;;;;;;30.65;5.05;;;;;;;;;;5003315;28;20204;-70
2022/12/24 02:06:11;;;;;;;33.20;5.13;;;;;;;;;;4995507;28;20215;-69
2022/12/24 02:08:42;;;;;;;32.85;5.22;;;;;;;;;;4999648;28;20259;-69
2022/12/24 02:11:08;;;;;;;32.75;5.15;;;;;;;;;;4983545;28;20225;-69
2022/12/24 02:13:34;;;;;;;34.20;5.03;;;;;;;;;;4980533;28;20209;-70
2022/12/24 02:16:03;;;;;;;30.98;5.07;;;;;;;;;;4976968;28;20267;-70
2022/12/24 02:18:40;;;;;;;34.97;5.43;;;;;;;;;;4994275;28;20617;-70
2022/12/24 02:21:05;;;;;;;30.60;5.45;;;;;;;;;;5001010;28;20212;-69
2022/12/24 02:23:37;;;;;;;30.87;5.03;;;;;;;;;;5003521;28;20545;-70
2022/12/24 02:26:21;;;;;;;33.35;4.50;;;;;;;;;;5001331;28;20319;-69
2022/12/24 02:28:47;;;;;;;27.35;5.47;;;;;;;;;;5003841;28;20585;-70
2022/12/24 02:31:20;;;;;;;34.22;4.85;;;;;;;;;;5002221;28;20270;-70
2022/12/24 02:33:48;;;;;;;29.57;6.03;;;;;;;;;;5001919;28;20243;-70
2022/12/24 02:36:29;;;;;;;31.75;4.68;;;;;;;;;;4993394;28;20361;-70
2022/12/24 02:38:59;;;;;;;33.55;5.00;;;;;;;;;;5009515;28;20212;-70
2022/12/24 02:41:25;;;;;;;34.70;5.45;;;;;;;;;;4992668;28;20223;-70
2022/12/24 02:43:50;;;;;;;26.50;4.78;;;;;;;;;;4999845;28;20208;-70
2022/12/24 02:46:17;;;;;;;35.53;5.27;;;;;;;;;;5001050;28;20236;-70
2022/12/24 02:48:43;;;;;;;29.50;4.70;;;;;;;;;;5001447;28;20220;-70
2022/12/24 02:51:08;;;;;;;31.07;4.90;;;;;;;;;;5001672;28;20551;-69
2022/12/24 02:53:34;;;;;;;29.33;4.53;;;;;;;;;;5000900;28;20228;-68
2022/12/24 02:55:59;;;;;;;27.50;4.82;;;;;;;;;;4993388;28;20221;-68
2022/12/24 02:58:25;;;;;;;35.08;4.75;;;;;;;;;;4979386;28;20676;-68
2022/12/24 03:01:14;;;;;;;29.33;4.35;;;;;;;;;;4975249;28;20232;-68
2022/12/24 03:03:46;;;;;;;29.73;4.50;;;;;;;;;;4994395;28;20293;-68
2022/12/24 03:06:18;;;;;;;34.13;5.43;;;;;;;;;;4990369;28;20224;-67
2022/12/24 03:08:47;;;;;;;30.67;4.60;;;;;;;;;;4983600;28;20296;-68
2022/12/24 03:11:14;;;;;;;39.53;5.45;;;;;;;;;;5002066;28;20208;-67
2022/12/24 03:13:40;;;;;;;31.90;4.10;;;;;;;;;;4998120;28;20213;-68
2022/12/24 03:16:06;;;;;;;26.88;4.68;;;;;;;;;;4983490;28;20231;-67
2022/12/24 03:18:31;;;;;;;24.17;4.00;;;;;;;;;;4983303;28;21201;-68
2022/12/24 03:20:59;;;;;;;27.63;4.47;;;;;;;;;;4979474;28;20698;-68
2022/12/24 03:23:25;;;;;;;27.67;3.95;;;;;;;;;;4989674;28;20723;-68
2022/12/24 03:25:50;;;;;;;26.15;4.40;;;;;;;;;;4974845;28;20279;-68
2022/12/24 03:28:15;;;;;;;26.17;4.47;;;;;;;;;;4992214;28;20217;-67
2022/12/24 03:30:41;;;;;;;32.80;4.97;;;;;;;;;;4998004;28;20256;-67
2022/12/24 03:33:06;;;;;;;30.63;4.60;;;;;;;;;;4982722;28;20735;-68
2022/12/24 03:35:32;;;;;;;33.05;5.20;;;;;;;;;;4982143;28;20220;-68
2022/12/24 03:37:57;;;;;;;33.67;4.28;;;;;;;;;;4983399;28;20247;-68
2022/12/24 03:40:22;;;;;;;31.40;4.82;;;;;;;;;;4982803;28;20213;-68
2022/12/24 03:42:47;;;;;;;30.57;4.63;;;;;;;;;;4981594;28;20304;-68
2022/12/24 03:45:13;;;;;;;31.20;4.40;;;;;;;;;;4976116;28;20287;-67
2022/12/24 03:47:38;;;;;;;27.15;4.30;;;;;;;;;;4979306;28;20244;-68
2022/12/24 03:50:03;;;;;;;26.20;4.63;;;;;;;;;;4978292;28;20213;-67
2022/12/24 03:52:28;;;;;;;31.80;4.13;;;;;;;;;;4987393;28;20217;-67
2022/12/24 03:54:54;;;;;;;36.50;5.03;;;;;;;;;;4987543;28;20294;-68
2022/12/24 03:57:19;;;;;;;29.60;4.90;;;;;;;;;;4985860;28;20216;-68
2022/12/24 03:59:44;;;;;;;28.30;4.53;;;;;;;;;;4986904;28;20220;-68
2022/12/24 04:02:10;;;;;;;28.05;4.60;;;;;;;;;;4985927;28;20763;-68
2022/12/24 04:04:36;;;;;;;29.52;4.97;;;;;;;;;;4986944;28;20307;-68
2022/12/24 04:07:01;;;;;;;29.08;4.63;;;;;;;;;;4981000;28;20235;-67
2022/12/24 04:09:27;;;;;;;29.48;4.60;;;;;;;;;;4978065;28;20229;-67
2022/12/24 04:11:52;;;;;;;32.08;4.88;;;;;;;;;;4978624;28;20209;-68
2022/12/24 04:14:17;;;;;;;32.42;5.43;;;;;;;;;;5006353;28;20211;-67
2022/12/24 04:16:42;;;;;;;31.50;4.55;;;;;;;;;;5014907;28;20697;-67
2022/12/24 04:19:08;;;;;;;35.33;5.07;;;;;;;;;;5015836;28;20224;-67
2022/12/24 04:21:33;;;;;;;28.55;5.20;;;;;;;;;;5016090;28;20216;-68
2022/12/24 04:23:58;;;;;;;30.38;5.15;;;;;;;;;;5015211;28;20773;-68
2022/12/24 04:26:24;;;;;;;33.60;4.95;;;;;;;;;;5015553;28;20226;-67
2022/12/24 04:28:49;;;;;;;30.92;5.05;;;;;;;;;;5015833;28;20307;-67
2022/12/24 04:31:15;;;;;;;30.55;5.10;;;;;;;;;;5014707;28;20623;-67
2022/12/24 04:33:40;;;;;;;32.73;5.00;;;;;;;;;;5015755;28;20243;-67
2022/12/24 04:36:05;;;;;;;34.60;5.90;;;;;;;;;;5014931;28;20625;-67
2022/12/24 04:38:31;;;;;;;34.73;5.30;;;;;;;;;;5015134;28;20213;-67
2022/12/24 04:40:58;;;;;;;33.08;5.55;;;;;;;;;;5015756;28;20283;-67
2022/12/24 04:43:23;;;;;;;23.27;4.70;;;;;;;;;;5015169;28;20644;-67
2022/12/24 04:45:49;;;;;;;30.58;5.15;;;;;;;;;;5014635;28;20248;-68
2022/12/24 04:48:14;;;;;;;38.35;5.97;;;;;;;;;;5015168;28;20271;-67
2022/12/24 04:50:39;;;;;;;31.90;5.50;;;;;;;;;;5015493;28;20232;-67
2022/12/24 04:53:04;;;;;;;36.72;6.25;;;;;;;;;;5014317;28;20278;-67
2022/12/24 04:55:30;;;;;;;32.65;5.50;;;;;;;;;;5015470;28;20216;-68
2022/12/24 04:57:55;;;;;;;35.75;5.97;;;;;;;;;;5014240;28;20660;-68
2022/12/24 05:00:20;;;;;;;34.35;5.68;;;;;;;;;;5013860;28;20222;-67
2022/12/24 05:02:45;;;;;;;29.40;5.70;;;;;;;;;;5015333;28;20208;-68
2022/12/24 05:05:11;;;;;;;40.78;6.22;;;;;;;;;;5014640;28;20694;-67
2022/12/24 05:07:36;;;;;;;30.08;5.88;;;;;;;;;;5014228;28;20310;-67
2022/12/24 05:10:01;;;;;;;29.98;5.60;;;;;;;;;;5014864;28;20303;-66
2022/12/24 05:12:26;;;;;;;41.63;5.95;;;;;;;;;;5014352;28;20579;-67
2022/12/24 05:14:52;;;;;;;31.10;5.68;;;;;;;;;;5014713;28;20220;-68
2022/12/24 05:17:17;;;;;;;33.08;5.20;;;;;;;;;;5013135;28;20216;-67
2022/12/24 05:19:42;;;;;;;23.70;5.65;;;;;;;;;;5014186;28;20691;-68
2022/12/24 05:27:35;;;;;;;29.50;5.32;;;;;;;;;;5013898;28;20235;-67
2022/12/24 05:30:01;;;;;;;35.15;5.65;;;;;;;;;;5014250;28;20578;-66
2022/12/24 05:32:27;;;;;;;29.98;5.15;;;;;;;;;;5014795;28;20339;-67
2022/12/24 05:34:52;;;;;;;34.15;5.68;;;;;;;;;;5014106;28;20247;-68
2022/12/24 05:37:18;;;;;;;32.10;5.22;;;;;;;;;;5013905;28;20727;-67
2022/12/24 05:39:43;;;;;;;31.80;6.05;;;;;;;;;;5014791;28;20211;-68
2022/12/24 05:42:08;;;;;;;33.45;5.43;;;;;;;;;;5013127;28;20223;-67
2022/12/24 05:44:33;;;;;;;35.08;5.43;;;;;;;;;;5014732;28;20560;-69
2022/12/24 05:46:58;;;;;;;37.13;5.38;;;;;;;;;;5014135;28;20238;-68
2022/12/24 05:49:24;;;;;;;36.78;6.13;;;;;;;;;;4988730;28;20236;-68
2022/12/24 05:51:49;;;;;;;31.73;5.53;;;;;;;;;;4985736;28;20239;-68
2022/12/24 05:54:14;;;;;;;37.28;5.82;;;;;;;;;;4984318;28;20217;-68
2022/12/24 05:56:40;;;;;;;34.75;5.75;;;;;;;;;;4984396;28;20669;-68
2022/12/24 05:59:05;;;;;;;34.20;5.90;;;;;;;;;;4984138;28;20316;-67
2022/12/24 06:01:30;;;;;;;39.67;5.60;;;;;;;;;;4984519;28;20209;-68
2022/12/24 06:03:55;;;;;;;34.05;5.13;;;;;;;;;;4978952;28;20619;-68
2022/12/24 06:06:22;;;;;;;41.28;6.60;;;;;;;;;;4976328;28;20224;-68
2022/12/24 06:08:47;;;;;;;28.23;4.70;;;;;;;;;;4993830;28;20219;-68
2022/12/24 06:11:13;;;;;;;38.20;5.78;;;;;;;;;;4999724;28;20212;-68
2022/12/24 06:13:38;;;;;;;31.70;5.68;;;;;;;;;;5002640;28;20251;-68
2022/12/24 06:16:04;;;;;;;33.58;5.07;;;;;;;;;;4991073;28;20669;-67
2022/12/24 06:18:30;;;;;;;36.67;5.93;;;;;;;;;;4999562;28;20221;-68
2022/12/24 06:20:56;;;;;;;30.73;5.28;;;;;;;;;;4984486;28;20216;-68
2022/12/24 06:23:21;;;;;;;36.00;5.60;;;;;;;;;;4983160;28;20217;-68
2022/12/24 06:25:46;;;;;;;37.33;5.60;;;;;;;;;;4981321;28;20217;-68
2022/12/24 06:28:12;;;;;;;34.22;5.45;;;;;;;;;;4991003;28;20614;-68
2022/12/24 06:30:37;;;;;;;41.15;6.85;;;;;;;;;;4975201;28;20217;-68
2022/12/24 06:33:02;;;;;;;34.00;5.63;;;;;;;;;;4997311;28;20374;-68
2022/12/24 06:35:29;;;;;;;33.53;6.57;;;;;;;;;;5003221;28;20204;-68
2022/12/24 06:37:54;;;;;;;32.60;5.85;;;;;;;;;;5002341;28;20217;-68
2022/12/24 06:40:20;;;;;;;33.72;6.28;;;;;;;;;;5000467;28;20269;-68
2022/12/24 06:42:45;;;;;;;33.90;6.00;;;;;;;;;;4984027;28;20546;-68
2022/12/24 06:45:10;;;;;;;34.38;5.82;;;;;;;;;;4982873;28;20213;-68
2022/12/24 06:47:36;;;;;;;33.28;5.93;;;;;;;;;;4982791;28;20257;-68
2022/12/24 06:50:01;;;;;;;32.50;5.18;;;;;;;;;;4975942;28;20221;-68
2022/12/24 06:52:26;;;;;;;29.52;5.38;;;;;;;;;;4974870;28;20224;-68
2022/12/24 06:54:51;;;;;;;37.53;5.85;;;;;;;;;;4976389;28;20693;-68
2022/12/24 06:57:17;;;;;;;30.00;5.25;;;;;;;;;;4983464;28;20229;-68
2022/12/24 06:59:42;;;;;;;28.92;6.20;;;;;;;;;;4983194;28;20221;-68
2022/12/24 07:02:08;;;;;;;32.97;6.68;;;;;;;;;;4982941;28;20314;-68
2022/12/24 07:04:33;;;;;;;37.08;6.70;;;;;;;;;;4988839;28;20274;-68
2022/12/24 07:06:58;;;;;;;37.08;7.25;;;;;;;;;;5011712;28;20224;-68
2022/12/24 07:09:23;;;;;;;36.53;5.88;;;;;;;;;;5012366;28;20269;-68
2022/12/24 07:11:49;;;;;;;34.85;5.57;;;;;;;;;;5002612;28;20205;-68
2022/12/24 07:14:14;;;;;;;37.17;5.95;;;;;;;;;;4974638;28;20232;-68
2022/12/24 07:16:39;;;;;;;35.75;6.35;;;;;;;;;;4975473;28;20213;-68
2022/12/24 07:19:04;;;;;;;37.15;6.18;;;;;;;;;;4974131;28;20315;-68
2022/12/24 07:21:30;;;;;;;30.55;5.80;;;;;;;;;;4983072;28;20228;-68
2022/12/24 07:23:55;;;;;;;27.70;6.22;;;;;;;;;;4983023;28;20215;-68
2022/12/24 07:26:20;;;;;;;33.03;6.50;;;;;;;;;;4981557;28;20291;-68
2022/12/24 07:28:45;;;;;;;31.73;6.68;;;;;;;;;;4999798;28;20239;-68
2022/12/24 07:31:11;;;;;;;36.60;7.32;;;;;;;;;;5012269;28;20570;-67
2022/12/24 07:33:36;;;;;;;39.35;7.10;;;;;;;;;;5011767;28;20270;-66
2022/12/24 07:36:02;;;;;;;42.83;8.63;;;;;;;;;;5011759;28;20926;-66
2022/12/24 07:38:28;;;;;;;43.20;6.85;;;;;;;;;;5012608;28;20334;-67
2022/12/24 07:40:53;;;;;;;32.00;7.18;;;;;;;;;;5011200;28;20287;-67
2022/12/24 07:43:18;;;;;;;44.35;7.90;;;;;;;;;;5011394;28;20240;-68
2022/12/24 07:45:43;;;;;;;35.53;6.25;;;;;;;;;;5012090;28;20212;-69
2022/12/24 07:48:09;;;;;;;36.67;6.82;;;;;;;;;;5010501;28;20223;-68
2022/12/24 07:50:34;;;;;;;33.85;6.32;;;;;;;;;;5012055;28;20216;-69
2022/12/24 07:52:59;;;;;;;37.95;7.10;;;;;;;;;;5011937;28;20666;-69
2022/12/24 07:55:24;;;;;;;35.47;6.68;;;;;;;;;;5010422;28;20275;-69
2022/12/24 07:57:50;;;;;;;34.75;7.18;;;;;;;;;;5012262;28;20212;-69
2022/12/24 08:00:15;;;;;;;29.60;6.28;;;;;;;;;;5011353;28;20612;-69
2022/12/24 08:02:40;;;;;;;31.60;5.97;;;;;;;;;;5011181;28;20212;-69
2022/12/24 08:05:06;;;;;;;32.37;7.30;;;;;;;;;;5010580;28;20469;-69
2022/12/24 08:07:31;;;;;;;33.65;6.95;;;;;;;;;;5011845;28;20224;-71
2022/12/24 08:09:56;;;;;;;34.17;6.65;;;;;;;;;;5011021;28;20637;-70
2022/12/24 08:12:23;;;;;;;34.33;6.30;;;;;;;;;;5011346;28;20204;-70
2022/12/24 08:14:48;;;;;;;34.25;6.28;;;;;;;;;;5011874;28;20201;-70
2022/12/24 08:17:13;;;;;;;31.65;5.70;;;;;;;;;;5010485;28;20200;-69
2022/12/24 08:19:39;;;;;;;39.78;9.05;;;;;;;;;;5011596;28;20578;-70
2022/12/24 08:22:04;;;;;;;31.60;7.28;;;;;;;;;;5011160;28;20201;-69
2022/12/24 08:24:29;;;;;;;35.65;7.13;;;;;;;;;;5010525;28;20212;-70
2022/12/24 08:26:54;;;;;;;36.53;6.82;;;;;;;;;;5011337;28;20225;-70
2022/12/24 08:29:20;;;;;;;41.83;7.20;;;;;;;;;;5010919;28;20270;-69
2022/12/24 08:31:45;;;;;;;29.10;6.10;;;;;;;;;;5011318;28;20575;-68
2022/12/24 08:34:10;;;;;;;32.70;6.18;;;;;;;;;;5014803;28;20232;-69
2022/12/24 08:36:35;;;;;;;30.30;6.40;;;;;;;;;;5014124;28;20334;-72
2022/12/24 08:39:02;;;;;;;41.65;6.80;;;;;;;;;;5014880;28;20236;-69
2022/12/24 08:41:28;;;;;;;30.25;5.25;;;;;;;;;;5014583;28;20255;-72
2022/12/24 08:43:54;;;;;;;32.92;6.13;;;;;;;;;;5005830;28;20256;-71
2022/12/24 08:46:19;;;;;;;32.00;5.78;;;;;;;;;;5014526;28;20274;-69
2022/12/24 08:48:44;;;;;;;28.88;5.30;;;;;;;;;;5015744;28;20208;-71
2022/12/24 08:51:10;;;;;;;28.90;6.22;;;;;;;;;;5013996;28;20771;-70
2022/12/24 08:53:35;;;;;;;35.55;6.68;;;;;;;;;;5014304;28;20711;-70
2022/12/24 08:56:02;;;;;;;29.75;6.10;;;;;;;;;;5014924;28;20219;-69
2022/12/24 08:58:28;;;;;;;28.27;5.60;;;;;;;;;;5014643;28;20664;-71
2022/12/24 09:00:53;;;;;;;30.23;6.60;;;;;;;;;;5014940;28;20215;-70
2022/12/24 09:03:19;;;;;;;32.08;6.47;;;;;;;;;;5014741;28;20219;-70
2022/12/24 09:05:44;;;;;;;33.95;6.20;;;;;;;;;;5014267;28;20701;-70
2022/12/24 09:08:09;;;;;;;28.63;5.90;;;;;;;;;;5014753;28;20223;-70
2022/12/24 09:10:34;;;;;;;31.70;6.88;;;;;;;;;;5015175;28;20212;-70
2022/12/24 09:13:00;;;;;;;29.90;5.97;;;;;;;;;;5014476;28;20588;-70
2022/12/24 09:15:25;;;;;;;35.03;6.35;;;;;;;;;;5013676;28;20216;-70
2022/12/24 09:17:50;;;;;;;36.72;6.68;;;;;;;;;;5015205;28;20578;-70
2022/12/24 09:20:15;;;;;;;36.58;6.80;;;;;;;;;;5013694;28;20220;-70
2022/12/24 09:22:41;;;;;;;38.78;6.47;;;;;;;;;;5013836;28;20655;-70
2022/12/24 09:25:07;;;;;;;30.10;5.60;;;;;;;;;;5014564;28;20574;-70
2022/12/24 09:27:33;;;;;;;33.67;6.32;;;;;;;;;;5014002;28;20227;-70
2022/12/24 09:29:58;;;;;;;36.42;6.55;;;;;;;;;;5015081;28;20208;-70
2022/12/24 09:32:23;;;;;;;29.40;6.47;;;;;;;;;;5014078;28;20212;-70
2022/12/24 09:34:48;;;;;;;41.35;7.45;;;;;;;;;;5012933;28;20263;-70
2022/12/24 09:37:14;;;;;;;33.00;6.63;;;;;;;;;;5013998;28;20213;-70
2022/12/24 09:39:39;;;;;;;37.58;8.13;;;;;;;;;;5014705;28;20231;-70
2022/12/24 09:42:04;;;;;;;40.03;9.35;;;;;;;;;;5012992;28;20691;-70
2022/12/24 09:44:41;;;;;;;33.90;7.50;;;;;;;;;;5013845;28;20212;-70
2022/12/24 09:47:09;;;;;;;31.92;7.05;;;;;;;;;;5011901;28;20713;-69
2022/12/24 09:49:37;;;;;;;34.50;7.25;;;;;;;;;;5013212;28;20247;-70
2022/12/24 09:52:04;;;;;;;34.20;6.95;;;;;;;;;;5013796;28;20220;-70
2022/12/24 09:54:32;;;;;;;29.63;7.10;;;;;;;;;;5013546;28;20220;-70
2022/12/24 09:57:00;;;;;;;27.17;7.43;;;;;;;;;;5012807;28;20208;-70
2022/12/24 09:59:39;;;;;;;35.08;8.52;;;;;;;;;;5012503;28;20209;-70
2022/12/24 10:02:08;;;;;;;29.58;6.72;;;;;;;;;;5012869;28;20745;-70
2022/12/24 10:04:33;;;;;;;33.92;7.50;;;;;;;;;;5012884;28;20213;-70
2022/12/24 10:07:17;;;;;;;32.53;7.65;;;;;;;;;;5013816;28;20230;-70
2022/12/24 10:09:46;;;;;;;28.88;6.35;;;;;;;;;;5013027;28;20212;-70
2022/12/24 10:12:11;;;;;;;32.08;7.65;;;;;;;;;;5013405;28;20695;-70
2022/12/24 10:14:56;;;;;;;31.85;6.60;;;;;;;;;;5013840;28;20294;-70
2022/12/24 10:17:40;;;;;;;30.58;6.32;;;;;;;;;;5013325;28;20213;-70
2022/12/24 10:20:06;;;;;;;31.70;6.13;;;;;;;;;;5028641;28;20220;-69
2022/12/24 10:22:47;;;;;;;38.17;7.90;;;;;;;;;;5013007;28;20708;-70
2022/12/24 10:25:12;;;;;;;35.15;6.65;;;;;;;;;;5013468;28;20733;-70
2022/12/24 10:27:39;;;;;;;34.70;6.82;;;;;;;;;;5013573;28;20216;-70
2022/12/24 10:30:11;;;;;;;39.35;6.70;;;;;;;;;;5011325;28;20259;-69
2022/12/24 10:32:36;;;;;;;36.17;6.38;;;;;;;;;;5011890;28;20225;-69
2022/12/24 10:35:05;;;;;;;31.00;5.95;;;;;;;;;;5011558;28;20254;-69
2022/12/24 10:37:31;;;;;;;29.00;6.15;;;;;;;;;;5012127;28;20211;-70
2022/12/24 10:39:57;;;;;;;32.42;6.57;;;;;;;;;;5013208;28;20220;-71
2022/12/24 10:42:22;;;;;;;29.15;6.32;;;;;;;;;;4992652;28;20209;-70
2022/12/24 10:44:49;;;;;;;32.90;5.80;;;;;;;;;;4991856;28;20585;-71
2022/12/24 10:47:14;;;;;;;31.67;6.28;;;;;;;;;;4992097;28;20264;-70
2022/12/24 10:49:43;;;;;;;30.90;5.88;;;;;;;;;;4992450;28;20209;-70
2022/12/24 10:52:10;;;;;;;29.85;5.30;;;;;;;;;;4992195;28;20279;-70
2022/12/24 10:54:38;;;;;;;31.65;5.93;;;;;;;;;;4992411;28;20232;-70
2022/12/24 10:57:03;;;;;;;32.28;5.90;;;;;;;;;;5011437;28;20676;-70
2022/12/24 10:59:41;;;;;;;31.20;5.45;;;;;;;;;;5011474;28;20216;-70
2022/12/24 11:02:25;;;;;;;34.13;5.85;;;;;;;;;;5011389;28;20299;-69
2022/12/24 11:04:51;;;;;;;23.40;5.47;;;;;;;;;;5012326;28;20208;-70
2022/12/24 11:07:17;;;;;;;30.80;6.13;;;;;;;;;;5012449;28;20338;-70
2022/12/24 11:09:42;;;;;;;29.27;5.78;;;;;;;;;;5011824;28;20212;-70
2022/12/24 11:12:15;;;;;;;27.88;5.75;;;;;;;;;;5010628;28;20228;-70
2022/12/24 11:14:40;;;;;;;44.00;11.65;;;;;;;;;;5012683;28;20215;-70
2022/12/24 11:17:05;;;;;;;76.38;25.77;;;;;;;;;;5011223;28;20216;-69
2022/12/24 11:19:32;;;;;;;34.60;6.82;;;;;;;;;;5010919;28;20212;-70
2022/12/24 11:21:57;;;;;;;27.85;6.15;;;;;;;;;;5011589;28;20209;-70
2022/12/24 11:24:23;;;;;;;27.70;5.85;;;;;;;;;;5007620;28;20219;-71
2022/12/24 11:26:48;;;;;;;27.75;5.70;;;;;;;;;;5011199;28;20229;-70
2022/12/24 11:29:20;;;;;;;26.50;5.35;;;;;;;;;;4994390;28;20213;-70
2022/12/24 11:31:46;;;;;;;27.95;5.00;;;;;;;;;;5012698;28;20217;-70
2022/12/24 11:34:20;;;;;;;27.63;5.50;;;;;;;;;;5011350;28;20225;-70
2022/12/24 11:36:46;;;;;;;26.20;5.45;;;;;;;;;;5012747;28;20215;-70
2022/12/24 11:39:18;;;;;;;26.63;4.93;;;;;;;;;;5007608;28;20575;-70
2022/12/24 11:41:43;;;;;;;24.42;5.35;;;;;;;;;;5012581;28;20201;-70
2022/12/24 11:44:08;;;;;;;32.55;4.78;;;;;;;;;;5012289;28;20231;-70
2022/12/24 11:46:38;;;;;;;27.05;4.90;;;;;;;;;;5011637;28;20294;-70
2022/12/24 11:49:05;;;;;;;23.65;3.95;;;;;;;;;;5011087;28;20223;-70
2022/12/24 11:51:30;;;;;;;20.85;3.97;;;;;;;;;;5012632;28;20212;-70
2022/12/24 11:53:57;;;;;;;25.75;4.90;;;;;;;;;;5026754;28;20559;-70
2022/12/24 11:56:29;;;;;;;31.08;5.55;;;;;;;;;;5012011;28;20220;-70
2022/12/24 11:58:57;;;;;;;22.02;4.05;;;;;;;;;;5011291;28;20574;-71
2022/12/24 12:01:33;;;;;;;23.30;4.35;;;;;;;;;;5011035;28;20215;-70
2022/12/24 12:03:59;;;;;;;25.10;4.30;;;;;;;;;;5011062;28;20242;-70
2022/12/24 12:06:26;;;;;;;20.52;4.00;;;;;;;;;;5013180;28;20251;-70
2022/12/24 12:08:54;;;;;;;24.40;4.90;;;;;;;;;;5013961;28;20676;-70
2022/12/24 12:11:19;;;;;;;22.13;4.32;;;;;;;;;;5014237;28;20675;-70
2022/12/24 12:13:44;;;;;;;24.25;4.38;;;;;;;;;;5016254;28;20218;-70
2022/12/24 12:16:13;;;;;;;26.77;5.38;;;;;;;;;;5013492;28;20216;-70
2022/12/24 12:18:39;;;;;;;32.60;5.40;;;;;;;;;;5015168;28;20224;-70
2022/12/24 12:21:06;;;;;;;26.08;4.50;;;;;;;;;;5014358;28;20235;-70
2022/12/24 12:23:35;;;;;;;24.02;4.32;;;;;;;;;;5014086;28;20621;-70
2022/12/24 12:26:03;;;;;;;31.60;4.40;;;;;;;;;;5015387;28;20307;-65
2022/12/24 12:28:43;;;;;;;27.80;5.88;;;;;;;;;;5014555;28;20683;-70
2022/12/24 12:31:10;;;;;;;22.98;4.55;;;;;;;;;;5015185;28;20551;-70
2022/12/24 12:33:37;;;;;;;22.20;4.07;;;;;;;;;;5014589;28;20232;-70
2022/12/24 12:36:03;;;;;;;23.80;4.00;;;;;;;;;;5014751;28;20217;-70
2022/12/24 12:38:28;;;;;;;26.13;5.25;;;;;;;;;;5009910;28;20669;-70
2022/12/24 12:41:04;;;;;;;26.73;4.38;;;;;;;;;;5007100;28;20220;-70
2022/12/24 12:43:35;;;;;;;23.50;4.60;;;;;;;;;;4994957;28;20223;-70
2022/12/24 12:46:01;;;;;;;28.70;4.95;;;;;;;;;;4995409;28;20224;-68
2022/12/24 12:48:34;;;;;;;28.77;4.93;;;;;;;;;;4996033;28;20212;-70
2022/12/24 12:51:03;;;;;;;24.25;4.63;;;;;;;;;;4993830;28;20216;-70
2022/12/24 12:53:31;;;;;;;25.10;4.88;;;;;;;;;;4994472;28;20213;-70
2022/12/24 12:56:10;;;;;;;21.15;4.05;;;;;;;;;;5005418;28;20224;-70
2022/12/24 12:58:36;;;;;;;25.88;3.83;;;;;;;;;;5013242;28;20280;-70
2022/12/24 13:01:07;;;;;;;23.38;4.07;;;;;;;;;;5013577;28;20302;-70
2022/12/24 13:03:40;;;;;;;17.48;3.55;;;;;;;;;;5013970;28;20212;-70
2022/12/24 13:06:12;;;;;;;18.05;3.50;;;;;;;;;;5005774;28;20262;-70
2022/12/24 13:08:39;;;;;;;25.80;4.18;;;;;;;;;;4994556;28;20267;-70
2022/12/24 13:11:09;;;;;;;21.63;3.90;;;;;;;;;;4994630;28;20300;-69
2022/12/24 13:13:39;;;;;;;19.30;3.78;;;;;;;;;;4994467;28;20213;-70
2022/12/24 13:16:17;;;;;;;22.33;3.90;;;;;;;;;;4977880;28;20606;-69
2022/12/24 13:18:47;;;;;;;20.05;3.25;;;;;;;;;;4993581;28;20219;-70
2022/12/24 13:21:14;;;;;;;17.38;3.70;;;;;;;;;;4994929;28;20684;-70
2022/12/24 13:23:39;;;;;;;23.70;4.10;;;;;;;;;;4994149;28;20209;-70
2022/12/24 13:26:08;;;;;;;21.17;3.63;;;;;;;;;;4994070;28;20236;-70
2022/12/24 13:28:34;;;;;;;23.75;3.40;;;;;;;;;;4995234;28;20216;-70
2022/12/24 13:30:59;;;;;;;24.75;3.47;;;;;;;;;;4996334;28;20216;-71
2022/12/24 13:33:35;;;;;;;22.55;3.67;;;;;;;;;;4997963;28;20881;-70
2022/12/24 13:36:01;;;;;;;21.60;3.72;;;;;;;;;;5000398;28;20217;-68
2022/12/24 13:38:26;;;;;;;19.17;3.58;;;;;;;;;;4996745;28;20212;-70
2022/12/24 13:40:51;;;;;;;22.52;4.60;;;;;;;;;;5004751;28;20208;-70
2022/12/24 13:43:16;;;;;;;19.30;3.65;;;;;;;;;;5007924;28;20591;-70
2022/12/24 13:45:43;;;;;;;23.17;3.50;;;;;;;;;;5007124;28;20216;-70
2022/12/24 13:48:08;;;;;;;22.77;3.70;;;;;;;;;;5005649;28;20220;-69
2022/12/24 13:50:36;;;;;;;24.20;3.30;;;;;;;;;;5008699;28;20581;-70
2022/12/24 13:53:01;;;;;;;19.60;3.50;;;;;;;;;;5007193;28;20634;-69
2022/12/24 13:55:27;;;;;;;21.70;3.72;;;;;;;;;;5004907;28;20224;-70
2022/12/24 13:57:53;;;;;;;24.55;4.30;;;;;;;;;;4998555;28;20213;-71
2022/12/24 14:00:19;;;;;;;18.58;3.45;;;;;;;;;;4999570;28;20650;-70
2022/12/24 14:02:46;;;;;;;20.33;3.47;;;;;;;;;;5003261;28;20271;-70
2022/12/24 14:05:17;;;;;;;18.77;3.55;;;;;;;;;;5003326;28;20298;-70
2022/12/24 14:07:44;;;;;;;20.60;4.28;;;;;;;;;;5003621;28;20766;-70
2022/12/24 14:10:18;;;;;;;23.10;2.92;;;;;;;;;;5007277;28;20236;-70
2022/12/24 14:12:45;;;;;;;21.40;3.55;;;;;;;;;;5005390;28;20213;-70
2022/12/24 14:15:29;;;;;;;19.05;3.33;;;;;;;;;;5005446;28;20220;-70
2022/12/24 14:17:54;;;;;;;16.52;3.50;;;;;;;;;;5005551;28;20239;-70
2022/12/24 14:20:19;;;;;;;20.88;3.65;;;;;;;;;;4998973;28;20242;-70
2022/12/24 14:22:45;;;;;;;27.52;3.97;;;;;;;;;;4997951;28;20212;-70
2022/12/24 14:25:14;;;;;;;28.20;4.35;;;;;;;;;;5001954;28;20251;-70
2022/12/24 14:27:40;;;;;;;18.85;3.40;;;;;;;;;;5007581;28;20695;-70
2022/12/24 14:30:07;;;;;;;15.63;3.05;;;;;;;;;;5009957;28;20224;-69
2022/12/24 14:32:37;;;;;;;20.60;4.88;;;;;;;;;;5005814;28;20247;-71
2022/12/24 14:35:04;;;;;;;22.25;3.65;;;;;;;;;;4988999;28;20228;-70
2022/12/24 14:37:30;;;;;;;21.70;3.35;;;;;;;;;;4988906;28;20289;-71
2022/12/24 14:39:55;;;;;;;22.40;4.05;;;;;;;;;;4972238;28;20696;-69